Kezdőlap
METAR-TAF:

METAR-TAF

Repülőterek :

Rundu, Namíbia

földrajzi szélesség: 17-57-20S, földrajzi hosszúság: 019-43-25E, magasság: 1106 m

METAR: hiányzik

Idő: 00:34 (23:34 UTC)

Előrejelzés

A jelentés 3 órával és 34 perccel ezelõtt készült, 20:00 UTC
Az előrejelzés 20-én 21 óra UTC és 21-én 06 óra UTC között érvényes
Dél-délkeleti szél 8 kt
Látótávolság 10 km, vagy több
felhőtlen 1500 m magasságban, és nincs gomolyfelhõ
20-én 22 óra UTC és 21-én 00 óra UTC között fokozatosan kialakuló
Kelet-északkeleti szél 5 kt

TAF: FYRU 202000Z 2021/2106 15008KT CAVOK BECMG 2022/2100 07005KT

Meteorológiai megfigyelések és előrejelzések több, mint 4000 repülőtéren (METAR és TAF jelentéseket).

A térképen piros és sárga pontok jelzik az elérhető meteorológiai állomásokat.

Mozgassa az egeret a pont fölött, hogy megjelenjen az állomás neve.

Azután kattintson az időjárási megfigyelések és előrejelzések megtekintéséhez.

A térkép megváltoztatása: kattintson a fekete keresztel jelölt zöld gombra ráközelítéshez, a vonallal jelölt zöld gombra távolításhoz, vagy a zöld nyilakra a szomszédos térképek eléréséhez.


METAR-TAF: